Time;durP1;ratioP1;P1;durP2;ratioP2;P2;SDS_P1;SDS_P2;PMS_P1;PMS_P2;Temp;Humidity;BMP_temperature;BMP_pressure;BME280_temperature;BME280_humidity;BME280_pressure;Samples;Min_cycle;Max_cycle;Signal;HPM_P1;HPM_P2
2021/03/28 00:01:46;;;;;;;13.83;4.70;;;2.50;99.90;;;;;;5066972;28;20214;-66
2021/03/28 00:04:16;;;;;;;8.27;3.97;;;2.60;99.90;;;;;;5067554;28;20206;-67
2021/03/28 00:06:58;;;;;;;9.80;4.37;;;2.70;99.90;;;;;;5067355;28;20263;-66
2021/03/28 00:09:27;;;;;;;10.87;4.50;;;2.80;99.90;;;;;;5066310;28;20214;-66
2021/03/28 00:12:04;;;;;;;15.37;4.93;;;2.80;99.90;;;;;;5065384;28;20203;-66
2021/03/28 00:14:45;;;;;;;9.30;4.30;;;2.80;99.90;;;;;;5066517;28;20216;-66
2021/03/28 00:17:32;;;;;;;10.17;4.30;;;2.60;99.90;;;;;;5067246;28;20248;-66
2021/03/28 00:20:07;;;;;;;15.67;5.13;;;2.40;99.90;;;;;;5064944;28;20209;-66
2021/03/28 00:22:36;;;;;;;11.53;4.87;;;2.60;99.90;;;;;;5063048;28;20202;-66
2021/03/28 00:25:12;;;;;;;12.57;4.77;;;2.60;99.90;;;;;;5067324;28;20202;-67
2021/03/28 00:27:45;;;;;;;11.47;4.63;;;2.60;99.90;;;;;;5066300;28;20206;-66
2021/03/28 00:30:31;;;;;;;13.40;4.70;;;2.40;99.90;;;;;;5064434;28;20202;-66
2021/03/28 00:33:02;;;;;;;9.90;4.43;;;2.30;99.90;;;;;;5064225;28;20729;-66
2021/03/28 00:35:34;;;;;;;11.07;4.70;;;2.30;99.90;;;;;;5066052;28;20209;-66
2021/03/28 00:38:11;;;;;;;13.33;5.20;;;2.40;99.90;;;;;;5066275;28;20582;-66
2021/03/28 00:40:38;;;;;;;13.57;4.70;;;2.40;99.90;;;;;;5066332;28;20226;-65
2021/03/28 00:43:16;;;;;;;12.13;4.60;;;2.40;99.90;;;;;;5067228;28;20259;-66
2021/03/28 00:45:53;;;;;;;11.93;4.43;;;2.30;99.90;;;;;;5067293;28;20212;-65
2021/03/28 00:48:21;;;;;;;11.30;4.43;;;2.20;99.90;;;;;;5061849;28;20206;-66
2021/03/28 00:50:52;;;;;;;13.83;4.50;;;2.20;99.90;;;;;;5063848;28;20264;-66
2021/03/28 00:53:37;;;;;;;10.97;4.50;;;2.10;99.90;;;;;;5064471;28;20210;-66
2021/03/28 00:56:09;;;;;;;11.03;4.20;;;2.10;99.90;;;;;;5063377;28;20302;-66
2021/03/28 00:58:49;;;;;;;10.47;4.13;;;2.30;99.90;;;;;;5057603;28;20202;-66
2021/03/28 01:01:23;;;;;;;14.87;4.70;;;2.30;99.90;;;;;;5064918;28;20276;-66
2021/03/28 01:04:27;;;;;;;13.07;4.73;;;2.20;99.90;;;;;;5065974;28;20274;-66
2021/03/28 01:06:57;;;;;;;13.20;4.93;;;2.30;99.90;;;;;;4983223;28;20200;-66
2021/03/28 01:09:39;;;;;;;13.10;4.73;;;2.30;99.90;;;;;;5047409;28;20241;-66
2021/03/28 01:12:44;;;;;;;15.17;5.37;;;2.30;99.90;;;;;;5064152;28;20194;-66
2021/03/28 01:16:05;;;;;;;11.80;4.63;;;2.40;99.90;;;;;;5063183;28;20228;-66
2021/03/28 01:18:38;;;;;;;10.60;4.50;;;2.30;99.90;;;;;;4984156;28;20228;-66
2021/03/28 01:21:13;;;;;;;12.10;4.50;;;2.40;99.90;;;;;;5050341;28;20229;-66
2021/03/28 01:23:41;;;;;;;13.43;4.40;;;2.40;99.90;;;;;;5066531;28;20209;-66
2021/03/28 01:26:40;;;;;;;11.77;4.00;;;2.50;99.90;;;;;;5068717;28;20259;-66
2021/03/28 01:29:28;;;;;;;12.43;4.10;;;2.50;99.90;;;;;;5048129;28;20207;-66
2021/03/28 01:31:59;;;;;;;13.40;4.50;;;2.70;99.90;;;;;;5065718;28;20202;-66
2021/03/28 01:34:29;;;;;;;12.83;4.80;;;2.90;99.90;;;;;;5057212;28;20203;-66
2021/03/28 01:37:07;;;;;;;13.03;4.33;;;2.80;99.90;;;;;;5057808;28;20257;-66
2021/03/28 01:39:43;;;;;;;13.23;4.53;;;2.90;99.90;;;;;;5055648;28;20222;-66
2021/03/28 01:42:19;;;;;;;12.57;4.50;;;3.00;99.90;;;;;;5056948;28;20227;-66
2021/03/28 01:44:53;;;;;;;14.33;4.50;;;2.90;99.90;;;;;;5058197;28;20198;-66
2021/03/28 01:47:29;;;;;;;10.90;4.17;;;2.80;99.90;;;;;;5063600;28;20202;-66
2021/03/28 01:50:23;;;;;;;12.77;4.13;;;2.90;99.90;;;;;;5059025;28;20198;-66
2021/03/28 01:52:59;;;;;;;9.80;4.13;;;2.80;99.90;;;;;;5066799;28;20198;-66
2021/03/28 01:55:32;;;;;;;13.20;4.20;;;2.80;99.90;;;;;;5061784;28;20210;-66
2021/03/28 01:58:09;;;;;;;11.07;3.70;;;2.80;99.90;;;;;;5062297;28;20197;-66
2021/03/28 02:00:58;;;;;;;8.10;4.00;;;2.80;99.90;;;;;;5060123;28;20209;-66
2021/03/28 02:03:31;;;;;;;14.93;4.97;;;2.70;99.90;;;;;;5061627;28;20335;-66
2021/03/28 02:06:07;;;;;;;7.77;3.70;;;2.90;99.90;;;;;;5062022;28;20674;-66
2021/03/28 02:08:49;;;;;;;11.87;4.23;;;2.70;99.90;;;;;;5064406;28;20202;-66
2021/03/28 02:11:30;;;;;;;11.63;3.90;;;2.90;99.90;;;;;;5060473;28;20202;-66
2021/03/28 02:14:10;;;;;;;17.87;4.20;;;2.90;99.90;;;;;;5061853;28;20203;-66
2021/03/28 02:16:51;;;;;;;12.73;3.93;;;2.90;99.90;;;;;;5058586;28;20221;-66
2021/03/28 02:19:20;;;;;;;11.70;4.30;;;3.00;99.90;;;;;;5062793;28;20206;-67
2021/03/28 02:22:00;;;;;;;16.13;4.70;;;2.90;99.90;;;;;;5065415;28;20229;-66
2021/03/28 02:24:40;;;;;;;15.43;4.27;;;2.80;99.90;;;;;;5066587;28;20296;-66
2021/03/28 02:27:13;;;;;;;9.73;3.70;;;2.90;99.90;;;;;;5065040;28;20218;-66
2021/03/28 02:29:47;;;;;;;9.53;3.43;;;2.90;99.90;;;;;;5069343;28;20202;-66
2021/03/28 02:32:28;;;;;;;14.50;4.47;;;2.90;99.90;;;;;;5113175;22;20315;-68
2021/03/28 02:35:01;;;;;;;11.37;3.77;;;3.00;99.90;;;;;;5106801;28;20222;-68
2021/03/28 02:37:43;;;;;;;12.60;4.90;;;3.00;99.90;;;;;;5100826;27;20225;-68
2021/03/28 02:40:13;;;;;;;11.17;3.73;;;3.00;99.90;;;;;;5107919;28;20211;-68
2021/03/28 02:42:56;;;;;;;9.70;4.33;;;2.90;99.90;;;;;;5104669;28;20196;-68
2021/03/28 02:45:26;;;;;;;10.30;3.50;;;2.90;99.90;;;;;;5110501;28;20551;-68
2021/03/28 02:48:23;;;;;;;7.77;3.07;;;2.90;99.90;;;;;;5106028;27;20207;-68
2021/03/28 02:51:23;;;;;;;7.17;3.33;;;2.80;99.90;;;;;;5108037;28;20197;-68
2021/03/28 02:54:24;;;;;;;16.20;3.63;;;3.10;99.90;;;;;;5104826;28;20204;-68
2021/03/28 02:57:02;;;;;;;9.83;3.30;;;3.10;99.90;;;;;;5107537;28;20654;-68
2021/03/28 02:59:37;;;;;;;15.40;3.70;;;3.20;99.90;;;;;;5108659;28;20196;-68
2021/03/28 03:02:27;;;;;;;8.30;3.60;;;3.30;99.90;;;;;;5110817;28;20223;-68
2021/03/28 03:05:17;;;;;;;11.63;3.67;;;3.30;99.90;;;;;;5104264;28;20296;-68
2021/03/28 03:08:09;;;;;;;12.77;4.30;;;3.40;99.90;;;;;;5104706;28;20690;-68
2021/03/28 03:10:56;;;;;;;5.80;2.90;;;3.40;99.90;;;;;;5104095;28;20253;-68
2021/03/28 03:13:48;;;;;;;9.10;3.00;;;3.40;99.90;;;;;;5103014;28;20571;-68
2021/03/28 03:16:22;;;;;;;13.47;3.67;;;3.40;99.90;;;;;;5099911;28;20639;-68
2021/03/28 03:19:42;;;;;;;10.77;3.60;;;3.40;99.90;;;;;;5098489;28;20197;-68
2021/03/28 03:22:50;;;;;;;11.83;3.60;;;3.40;99.90;;;;;;5101860;28;20221;-68
2021/03/28 03:25:48;;;;;;;8.93;2.97;;;3.40;99.90;;;;;;5095724;28;20202;-68
2021/03/28 03:28:54;;;;;;;14.07;3.63;;;3.40;99.90;;;;;;5101281;28;20192;-68
2021/03/28 03:31:47;;;;;;;9.43;3.40;;;3.50;99.90;;;;;;5059324;28;20454;-68
2021/03/28 03:34:42;;;;;;;8.93;3.43;;;3.50;99.90;;;;;;5107915;28;20209;-68
2021/03/28 03:37:38;;;;;;;9.90;3.43;;;3.40;99.90;;;;;;5101476;28;20726;-66
2021/03/28 03:40:27;;;;;;;11.20;4.10;;;3.30;99.90;;;;;;5091161;28;20606;-66
2021/03/28 03:43:05;;;;;;;12.90;3.03;;;3.40;99.90;;;;;;5094373;28;20203;-67
2021/03/28 03:45:44;;;;;;;12.33;2.90;;;3.40;99.90;;;;;;5094143;28;20198;-66
2021/03/28 03:48:20;;;;;;;10.63;3.43;;;3.40;99.90;;;;;;5111648;28;20257;-66
2021/03/28 03:50:58;;;;;;;7.33;3.03;;;3.40;99.90;;;;;;5100817;28;20605;-66
2021/03/28 03:53:36;;;;;;;8.80;3.03;;;3.50;99.90;;;;;;5105737;28;20209;-66
2021/03/28 03:56:18;;;;;;;5.30;2.70;;;3.50;99.90;;;;;;5098727;28;20213;-66
2021/03/28 03:58:58;;;;;;;14.73;3.30;;;3.50;99.90;;;;;;5101252;28;20422;-66
2021/03/28 04:01:28;;;;;;;12.57;3.43;;;3.70;99.90;;;;;;5102819;28;20269;-67
2021/03/28 04:04:04;;;;;;;10.40;3.30;;;3.80;99.90;;;;;;5105564;28;20209;-67
2021/03/28 04:06:59;;;;;;;10.00;2.97;;;3.70;99.90;;;;;;5106274;28;20292;-66
2021/03/28 04:09:36;;;;;;;12.63;3.40;;;3.70;99.90;;;;;;5101250;28;20208;-66
2021/03/28 04:12:25;;;;;;;9.83;2.77;;;3.60;99.90;;;;;;5103115;28;20197;-67
2021/03/28 04:15:05;;;;;;;9.60;3.10;;;3.60;99.90;;;;;;5100542;28;20205;-66
2021/03/28 04:17:54;;;;;;;18.00;3.67;;;3.60;99.90;;;;;;5102411;28;20197;-67
2021/03/28 04:20:30;;;;;;;11.27;3.50;;;3.70;99.90;;;;;;5096974;28;20208;-66
2021/03/28 04:23:26;;;;;;;11.50;2.60;;;3.70;99.90;;;;;;5109176;28;20203;-67
2021/03/28 04:26:01;;;;;;;11.73;3.27;;;3.70;99.90;;;;;;5104477;28;20197;-67
2021/03/28 04:28:48;;;;;;;12.77;2.90;;;3.60;99.90;;;;;;5101781;28;20197;-66
2021/03/28 04:31:52;;;;;;;11.03;3.20;;;3.50;99.90;;;;;;5104553;28;20235;-66
2021/03/28 04:34:22;;;;;;;9.97;3.67;;;3.50;99.90;;;;;;5097596;28;20193;-66
2021/03/28 04:37:19;;;;;;;14.33;3.47;;;3.50;99.90;;;;;;5099684;28;20201;-66
2021/03/28 04:40:28;;;;;;;7.67;2.80;;;3.50;99.90;;;;;;5081258;27;20197;-66
2021/03/28 04:43:20;;;;;;;10.57;3.23;;;3.50;99.90;;;;;;5097927;28;20216;-67
2021/03/28 04:46:08;;;;;;;18.33;3.37;;;3.40;99.90;;;;;;5093645;28;20646;-67
2021/03/28 04:49:07;;;;;;;8.60;3.20;;;3.50;99.90;;;;;;5102239;28;20201;-66
2021/03/28 04:52:11;;;;;;;11.37;3.00;;;3.60;99.90;;;;;;5097942;28;20254;-66
2021/03/28 04:55:12;;;;;;;8.60;2.93;;;3.70;99.90;;;;;;5103018;28;20209;-66
2021/03/28 04:58:00;;;;;;;9.13;3.37;;;3.90;99.90;;;;;;5104408;28;20196;-67
2021/03/28 05:00:55;;;;;;;10.97;2.87;;;4.00;99.90;;;;;;5092947;28;20198;-67
2021/03/28 05:03:54;;;;;;;9.10;3.23;;;4.00;99.90;;;;;;5084578;28;20196;-67
2021/03/28 05:06:49;;;;;;;8.73;2.80;;;3.90;99.90;;;;;;5079802;28;20640;-67
2021/03/28 05:09:45;;;;;;;8.60;2.87;;;3.90;99.90;;;;;;5076283;28;20208;-67
2021/03/28 05:12:41;;;;;;;6.80;2.90;;;4.00;99.90;;;;;;5085341;28;20196;-67
2021/03/28 05:15:42;;;;;;;8.77;3.50;;;4.10;99.90;;;;;;5106809;28;20213;-67
2021/03/28 05:18:48;;;;;;;8.30;2.73;;;4.10;99.90;;;;;;5095873;28;20204;-67
2021/03/28 05:21:47;;;;;;;9.60;2.50;;;4.00;99.90;;;;;;5109146;28;20685;-67
2021/03/28 05:24:50;;;;;;;9.97;3.67;;;4.00;99.90;;;;;;5100783;28;20201;-67
2021/03/28 05:27:48;;;;;;;7.80;2.93;;;4.10;99.90;;;;;;5097328;28;20631;-67
2021/03/28 05:30:46;;;;;;;7.87;3.07;;;4.20;99.90;;;;;;5106929;28;20201;-67
2021/03/28 05:33:39;;;;;;;9.00;3.07;;;4.30;99.90;;;;;;5081412;28;20204;-67
2021/03/28 05:36:34;;;;;;;9.30;3.30;;;4.30;99.90;;;;;;5083700;28;20259;-68
2021/03/28 05:39:34;;;;;;;11.80;3.20;;;4.40;99.90;;;;;;5027603;28;20206;-67
2021/03/28 05:42:26;;;;;;;10.83;2.90;;;4.40;99.90;;;;;;5085811;28;20220;-67
2021/03/28 05:45:21;;;;;;;9.30;3.33;;;4.40;99.90;;;;;;5081339;28;20206;-67
2021/03/28 05:48:09;;;;;;;7.70;3.63;;;4.50;99.90;;;;;;5080268;28;20296;-67
2021/03/28 05:50:47;;;;;;;7.73;3.73;;;4.50;99.90;;;;;;5085527;28;20210;-68
2021/03/28 05:53:51;;;;;;;17.87;7.93;;;4.60;99.90;;;;;;5088038;28;20205;-67
2021/03/28 05:57:04;;;;;;;12.60;3.90;;;4.80;99.90;;;;;;5076689;28;20206;-67
2021/03/28 06:00:01;;;;;;;10.93;3.80;;;4.90;99.90;;;;;;5077999;28;20210;-68
2021/03/28 06:03:11;;;;;;;13.60;4.13;;;4.80;99.90;;;;;;5083921;28;20230;-68
2021/03/28 06:06:14;;;;;;;12.53;3.60;;;4.90;99.90;;;;;;5091529;28;20201;-67
2021/03/28 06:09:34;;;;;;;11.47;3.87;;;4.90;99.90;;;;;;5085696;28;20685;-67
2021/03/28 06:12:24;;;;;;;11.23;3.37;;;5.00;99.90;;;;;;5051939;28;20237;-68
2021/03/28 06:15:22;;;;;;;12.40;3.93;;;5.00;99.90;;;;;;5080740;28;20206;-67
2021/03/28 06:18:23;;;;;;;13.90;4.47;;;5.10;99.90;;;;;;5083750;28;20201;-67
2021/03/28 06:21:23;;;;;;;14.13;3.30;;;5.10;99.90;;;;;;5084117;28;20463;-67
2021/03/28 06:24:26;;;;;;;11.67;3.97;;;5.10;99.90;;;;;;5080417;28;20202;-67
2021/03/28 06:27:41;;;;;;;8.13;3.27;;;5.20;99.90;;;;;;5078544;28;20202;-68
2021/03/28 06:30:45;;;;;;;12.17;3.93;;;5.30;99.90;;;;;;5078400;28;20568;-67
2021/03/28 06:34:03;;;;;;;11.03;3.50;;;5.50;99.90;;;;;;5083282;28;20626;-68
2021/03/28 06:37:12;;;;;;;10.67;3.63;;;5.60;99.90;;;;;;5078293;28;20221;-67
2021/03/28 06:40:37;;;;;;;9.17;3.47;;;5.80;99.90;;;;;;5082964;28;20206;-67
2021/03/28 06:43:36;;;;;;;13.43;4.30;;;5.80;99.90;;;;;;5077888;28;20514;-68
2021/03/28 06:46:54;;;;;;;11.77;3.27;;;5.90;99.90;;;;;;5040149;28;20213;-67
2021/03/28 06:50:11;;;;;;;7.73;3.57;;;5.80;99.90;;;;;;5001748;28;20205;-67
2021/03/28 06:52:56;;;;;;;9.60;3.07;;;5.80;99.90;;;;;;5043538;28;20282;-67
2021/03/28 06:55:40;;;;;;;11.00;3.63;;;6.10;99.90;;;;;;5082826;28;20208;-67
2021/03/28 06:58:48;;;;;;;11.53;4.03;;;6.50;99.90;;;;;;5080416;28;20673;-67
2021/03/28 07:01:50;;;;;;;11.03;3.40;;;7.00;99.90;;;;;;5083534;28;20226;-67
2021/03/28 07:05:11;;;;;;;7.30;3.57;;;6.80;99.90;;;;;;5080011;28;20201;-68
2021/03/28 07:08:08;;;;;;;14.27;3.50;;;6.70;99.90;;;;;;5048007;28;20230;-67
2021/03/28 07:11:17;;;;;;;11.63;3.97;;;6.80;99.90;;;;;;5042651;28;20603;-77
2021/03/28 07:14:37;;;;;;;13.77;3.83;;;6.70;99.90;;;;;;5045149;28;20601;-76
2021/03/28 07:17:54;;;;;;;13.53;3.83;;;6.70;99.90;;;;;;5067520;28;20205;-67
2021/03/28 07:20:34;;;;;;;12.90;3.93;;;6.70;99.90;;;;;;5082480;28;20209;-67
2021/03/28 07:23:20;;;;;;;9.13;3.80;;;6.70;99.90;;;;;;5085448;28;20565;-67
2021/03/28 07:25:50;;;;;;;10.50;3.90;;;6.80;99.90;;;;;;5080462;28;20212;-67
2021/03/28 07:29:11;;;;;;;9.33;3.30;;;6.80;99.90;;;;;;5082191;28;20235;-67
2021/03/28 07:32:15;;;;;;;12.13;3.30;;;6.80;99.90;;;;;;5086237;28;20755;-67
2021/03/28 07:35:18;;;;;;;11.13;3.77;;;7.00;99.90;;;;;;5101225;28;20196;-67
2021/03/28 07:38:22;;;;;;;8.90;3.37;;;7.10;99.90;;;;;;5101430;28;20227;-68
2021/03/28 07:41:30;;;;;;;10.23;3.47;;;7.30;99.90;;;;;;5094746;28;20213;-67
2021/03/28 07:44:26;;;;;;;7.83;2.90;;;7.40;99.90;;;;;;5100654;28;20723;-67
2021/03/28 07:47:24;;;;;;;7.60;2.80;;;7.50;99.90;;;;;;5092210;28;20212;-67
2021/03/28 07:50:37;;;;;;;8.40;3.30;;;7.60;99.90;;;;;;5106348;28;20193;-67
2021/03/28 07:53:37;;;;;;;7.83;3.90;;;7.90;99.90;;;;;;5103832;28;20558;-67
2021/03/28 07:56:27;;;;;;;9.17;3.40;;;8.20;99.90;;;;;;5063704;28;20258;-67
2021/03/28 07:59:03;;;;;;;9.10;3.53;;;8.20;99.90;;;;;;5100266;28;20198;-67
2021/03/28 08:02:20;;;;;;;7.97;3.60;;;8.00;99.90;;;;;;5095711;28;20217;-67
2021/03/28 08:05:14;;;;;;;14.47;3.93;;;8.20;99.90;;;;;;5076456;28;20334;-67
2021/03/28 08:07:52;;;;;;;15.13;3.93;;;8.70;99.90;;;;;;5099522;28;20579;-67
2021/03/28 08:11:00;;;;;;;9.03;3.20;;;8.90;99.90;;;;;;5102799;28;20207;-67
2021/03/28 08:13:56;;;;;;;11.23;4.00;;;8.90;99.90;;;;;;5105541;28;20612;-68
2021/03/28 08:16:34;;;;;;;9.43;2.87;;;8.70;99.90;;;;;;5107421;28;20198;-67
2021/03/28 08:19:25;;;;;;;13.97;3.97;;;8.80;99.90;;;;;;5103687;28;20263;-67
2021/03/28 08:22:00;;;;;;;10.17;3.53;;;8.60;99.90;;;;;;5096478;28;20221;-68
2021/03/28 08:25:04;;;;;;;11.03;3.73;;;8.60;99.90;;;;;;5108735;28;20200;-67
2021/03/28 08:28:13;;;;;;;10.17;3.70;;;8.60;99.90;;;;;;5103231;28;20204;-67
2021/03/28 08:30:57;;;;;;;13.23;3.60;;;8.60;99.90;;;;;;5039721;27;20200;-68
2021/03/28 08:34:00;;;;;;;9.93;3.27;;;8.50;99.90;;;;;;5120106;27;20220;-67
2021/03/28 08:36:49;;;;;;;10.93;3.13;;;8.60;99.90;;;;;;5093499;27;20206;-67
2021/03/28 08:39:29;;;;;;;11.07;3.70;;;8.70;99.90;;;;;;5119123;27;20651;-67
2021/03/28 08:42:25;;;;;;;10.13;3.07;;;8.80;99.90;;;;;;5124861;27;20216;-68
2021/03/28 08:45:28;;;;;;;10.20;2.93;;;8.80;99.90;;;;;;5122642;27;20777;-67
2021/03/28 08:48:30;;;;;;;8.17;3.00;;;8.60;99.90;;;;;;5128954;27;20287;-67
2021/03/28 08:51:40;;;;;;;9.13;3.80;;;8.70;99.90;;;;;;5122403;27;20256;-68
2021/03/28 08:54:14;;;;;;;7.23;2.93;;;8.70;99.90;;;;;;5045611;28;20202;-67
2021/03/28 08:57:00;;;;;;;11.20;3.17;;;8.80;99.90;;;;;;5045628;28;20255;-67
2021/03/28 08:59:44;;;;;;;6.33;2.30;;;9.00;99.90;;;;;;5094950;27;20294;-67
2021/03/28 09:02:21;;;;;;;9.10;2.40;;;9.10;99.90;;;;;;5118305;27;20216;-67
2021/03/28 09:04:59;;;;;;;11.13;2.93;;;9.10;99.90;;;;;;5113505;27;20215;-67
2021/03/28 09:07:40;;;;;;;8.93;3.10;;;9.20;99.90;;;;;;5129270;27;20240;-67
2021/03/28 09:10:31;;;;;;;8.20;2.80;;;9.30;99.90;;;;;;5124438;27;20624;-67
2021/03/28 09:13:14;;;;;;;10.03;3.10;;;9.60;99.90;;;;;;5123911;27;20597;-67
2021/03/28 09:16:02;;;;;;;5.30;2.30;;;9.60;99.90;;;;;;5120248;27;20295;-67
2021/03/28 09:18:44;;;;;;;8.43;2.97;;;10.00;99.90;;;;;;5128885;27;20196;-67
2021/03/28 09:21:28;;;;;;;6.07;2.70;;;10.00;99.90;;;;;;5122688;27;20692;-67
2021/03/28 09:24:12;;;;;;;6.57;3.07;;;9.90;99.90;;;;;;5122879;27;20249;-67
2021/03/28 09:26:47;;;;;;;10.50;2.90;;;9.80;99.90;;;;;;5116742;28;20193;-67
2021/03/28 09:29:36;;;;;;;12.70;3.67;;;9.90;99.90;;;;;;5122495;27;20211;-67
2021/03/28 09:32:18;;;;;;;10.97;2.90;;;9.90;99.90;;;;;;5115184;28;20641;-67
2021/03/28 09:34:54;;;;;;;10.77;2.83;;;9.90;99.90;;;;;;5122414;28;20208;-67
2021/03/28 09:37:26;;;;;;;8.73;2.77;;;9.90;99.90;;;;;;5123327;28;20236;-67
2021/03/28 09:40:22;;;;;;;6.70;2.63;;;9.90;99.90;;;;;;5125650;28;20599;-67
2021/03/28 09:43:22;;;;;;;10.30;2.67;;;10.00;99.90;;;;;;5110389;28;20220;-68
2021/03/28 09:46:17;;;;;;;10.87;2.67;;;9.90;99.90;;;;;;5125289;28;20211;-67
2021/03/28 09:49:02;;;;;;;6.83;2.40;;;9.80;99.90;;;;;;5121361;28;20687;-67
2021/03/28 09:51:58;;;;;;;9.13;2.80;;;9.70;99.90;;;;;;5120126;28;20197;-67
2021/03/28 09:54:42;;;;;;;6.93;2.40;;;9.80;99.90;;;;;;5116154;28;20226;-67
2021/03/28 09:57:41;;;;;;;8.23;2.70;;;9.90;99.90;;;;;;5116754;28;20265;-67
2021/03/28 10:00:45;;;;;;;11.43;2.50;;;10.00;99.90;;;;;;5115738;28;20197;-68
2021/03/28 10:03:23;;;;;;;7.77;2.73;;;10.10;99.90;;;;;;5118595;28;20719;-67
2021/03/28 10:05:58;;;;;;;9.43;2.73;;;10.20;99.90;;;;;;5128888;28;20210;-68
2021/03/28 10:08:26;;;;;;;11.80;3.37;;;10.30;99.90;;;;;;5124985;28;20202;-67
2021/03/28 10:11:05;;;;;;;9.60;3.07;;;10.30;99.90;;;;;;5121291;28;20557;-69
2021/03/28 10:13:56;;;;;;;9.10;2.40;;;10.50;99.90;;;;;;5119162;28;20249;-76
2021/03/28 10:16:27;;;;;;;7.93;2.60;;;10.60;99.90;;;;;;5119499;28;20209;-76
2021/03/28 10:19:15;;;;;;;10.37;2.67;;;10.70;99.90;;;;;;5121664;28;20205;-68
2021/03/28 10:22:16;;;;;;;8.43;2.80;;;10.70;99.90;;;;;;5127556;28;20270;-68
2021/03/28 10:25:12;;;;;;;7.67;3.30;;;10.90;99.90;;;;;;5120499;28;20260;-69
2021/03/28 10:28:07;;;;;;;10.17;2.87;;;11.10;99.90;;;;;;5120905;28;20205;-68
2021/03/28 10:30:43;;;;;;;12.90;2.87;;;11.50;99.90;;;;;;5121093;28;20197;-68
2021/03/28 10:33:28;;;;;;;7.77;2.50;;;12.00;99.90;;;;;;5121283;28;20197;-76
2021/03/28 10:36:02;;;;;;;7.70;2.87;;;12.20;99.90;;;;;;5123613;28;20196;-77
2021/03/28 10:39:02;;;;;;;7.40;3.13;;;12.50;99.90;;;;;;5113428;28;20249;-76
2021/03/28 10:41:40;;;;;;;5.40;2.23;;;12.70;99.90;;;;;;5109998;27;20216;-76
2021/03/28 10:44:23;;;;;;;8.70;2.60;;;13.00;99.90;;;;;;5132821;27;20229;-77
2021/03/28 10:47:34;;;;;;;4.00;2.40;;;12.90;99.90;;;;;;5127170;27;20316;-76
2021/03/28 10:50:46;;;;;;;6.87;2.10;;;13.00;99.90;;;;;;5123900;27;20291;-76
2021/03/28 10:53:50;;;;;;;6.47;2.70;;;13.40;99.90;;;;;;5126332;27;20196;-76
2021/03/28 10:57:20;;;;;;;7.57;2.40;;;13.70;99.90;;;;;;5115730;27;20209;-77
2021/03/28 11:00:22;;;;;;;6.23;2.70;;;13.40;99.90;;;;;;5119465;27;20213;-76
2021/03/28 11:03:21;;;;;;;3.27;2.27;;;13.60;99.90;;;;;;5111881;27;20410;-76
2021/03/28 11:06:16;;;;;;;8.13;2.50;;;13.40;99.90;;;;;;5126919;27;20200;-77
2021/03/28 11:09:10;;;;;;;5.07;2.53;;;13.70;99.90;;;;;;5123206;27;20209;-77
2021/03/28 11:11:58;;;;;;;9.43;2.63;;;13.70;99.90;;;;;;5126946;27;20204;-76
2021/03/28 11:15:11;;;;;;;5.77;2.27;;;13.70;99.90;;;;;;5114511;27;20216;-76
2021/03/28 11:18:06;;;;;;;6.43;2.20;;;13.70;99.90;;;;;;5122795;27;20256;-75
2021/03/28 11:20:45;;;;;;;9.73;2.50;;;13.70;99.90;;;;;;5124792;27;20208;-77
2021/03/28 11:23:30;;;;;;;5.83;2.57;;;13.80;99.90;;;;;;5118010;27;20365;-76
2021/03/28 11:26:51;;;;;;;5.90;2.23;;;14.00;99.90;;;;;;5114621;27;20201;-76
2021/03/28 11:30:04;;;;;;;5.27;2.73;;;13.70;99.90;;;;;;5114878;27;20625;-76
2021/03/28 11:32:54;;;;;;;5.47;2.47;;;13.80;99.90;;;;;;5112566;27;20215;-76
2021/03/28 11:35:27;;;;;;;6.60;2.23;;;13.50;99.90;;;;;;5114258;27;20567;-76
2021/03/28 11:38:15;;;;;;;3.40;2.00;;;13.90;99.90;;;;;;5117577;27;20258;-76
2021/03/28 11:40:43;;;;;;;6.93;2.40;;;13.40;99.90;;;;;;5127399;27;20223;-76
2021/03/28 11:43:32;;;;;;;5.63;2.53;;;13.60;99.90;;;;;;5121439;27;20227;-76
2021/03/28 11:46:20;;;;;;;7.23;2.60;;;13.70;99.90;;;;;;5115156;27;20598;-77
2021/03/28 11:49:06;;;;;;;5.23;2.50;;;13.80;99.90;;;;;;5120645;27;20658;-76
2021/03/28 11:51:43;;;;;;;8.90;2.50;;;13.80;99.90;;;;;;5115498;27;20201;-77
2021/03/28 11:54:18;;;;;;;6.77;2.70;;;13.80;99.90;;;;;;5124647;27;20208;-76
2021/03/28 11:56:48;;;;;;;10.63;4.00;;;14.00;99.90;;;;;;5127692;27;20602;-76
2021/03/28 11:59:34;;;;;;;4.23;2.23;;;13.80;99.90;;;;;;5120901;27;20212;-77
2021/03/28 12:02:26;;;;;;;8.30;2.63;;;13.60;99.90;;;;;;5121563;27;20316;-77
2021/03/28 12:05:26;;;;;;;3.97;2.13;;;13.80;99.90;;;;;;5121995;27;20548;-76
2021/03/28 12:08:07;;;;;;;5.00;2.03;;;13.80;99.90;;;;;;5115566;27;20562;-75
2021/03/28 12:10:36;;;;;;;6.83;2.20;;;13.70;99.90;;;;;;5116214;27;20209;-76
2021/03/28 12:13:29;;;;;;;5.17;1.93;;;13.70;99.90;;;;;;5114601;27;20204;-76
2021/03/28 12:16:01;;;;;;;6.23;2.30;;;13.60;99.90;;;;;;5128444;27;20204;-76
2021/03/28 12:18:45;;;;;;;4.73;2.30;;;13.60;99.90;;;;;;5127451;27;20269;-76
2021/03/28 12:21:40;;;;;;;2.93;1.70;;;13.60;99.90;;;;;;5119234;27;20251;-76
2021/03/28 12:24:10;;;;;;;4.97;1.73;;;13.70;99.90;;;;;;5121861;27;20200;-76
2021/03/28 12:26:53;;;;;;;6.73;1.63;;;13.70;99.90;;;;;;5115099;27;20226;-77
2021/03/28 12:29:49;;;;;;;6.03;2.30;;;13.70;99.90;;;;;;5117760;27;20209;-76
2021/03/28 12:33:00;;;;;;;5.50;2.37;;;13.60;99.90;;;;;;5111052;27;20891;-76
2021/03/28 12:35:53;;;;;;;3.30;1.77;;;13.60;99.90;;;;;;5120680;27;20231;-76
2021/03/28 12:38:41;;;;;;;5.20;1.90;;;13.50;99.90;;;;;;5115950;27;20653;-76
2021/03/28 12:41:19;;;;;;;4.03;1.90;;;13.40;99.90;;;;;;5119984;27;20209;-77
2021/03/28 12:43:48;;;;;;;5.03;1.90;;;13.40;99.90;;;;;;5117026;27;20208;-76
2021/03/28 12:46:41;;;;;;;5.90;2.27;;;13.30;99.90;;;;;;5117795;27;20212;-77
2021/03/28 12:49:18;;;;;;;6.47;2.20;;;13.20;99.90;;;;;;5124494;27;20700;-76
2021/03/28 12:51:49;;;;;;;6.40;2.17;;;13.40;99.90;;;;;;5117306;27;20586;-76
2021/03/28 12:54:25;;;;;;;4.87;1.87;;;13.40;99.90;;;;;;5120012;27;20204;-76
2021/03/28 12:56:58;;;;;;;4.43;1.70;;;13.30;99.90;;;;;;5126876;27;20261;-76
2021/03/28 12:59:42;;;;;;;3.63;2.00;;;13.40;99.90;;;;;;5111974;27;20208;-76
2021/03/28 13:02:13;;;;;;;5.30;1.80;;;13.50;99.90;;;;;;5113265;27;20220;-76
2021/03/28 13:04:40;;;;;;;5.63;1.90;;;13.50;99.90;;;;;;5114399;27;20211;-76
2021/03/28 13:07:26;;;;;;;7.40;2.13;;;13.40;99.90;;;;;;5119560;27;20208;-76
2021/03/28 13:09:53;;;;;;;4.23;1.80;;;13.30;99.90;;;;;;5119840;27;20210;-77
2021/03/28 13:12:25;;;;;;;4.20;1.80;;;13.40;99.90;;;;;;5116997;27;20680;-76
2021/03/28 13:14:53;;;;;;;5.43;1.90;;;13.40;99.90;;;;;;5111974;27;20205;-76
2021/03/28 13:17:39;;;;;;;6.53;2.27;;;13.40;99.90;;;;;;5114684;27;20683;-76
2021/03/28 13:20:28;;;;;;;8.23;2.57;;;13.40;99.90;;;;;;5119552;27;20209;-76
2021/03/28 13:23:16;;;;;;;5.87;2.27;;;13.40;99.90;;;;;;5118991;27;20313;-76
2021/03/28 13:25:42;;;;;;;5.07;1.93;;;13.40;99.90;;;;;;5112788;27;20208;-76
2021/03/28 13:28:33;;;;;;;7.47;2.50;;;13.40;99.90;;;;;;5118016;27;20205;-76
2021/03/28 13:31:44;;;;;;;7.60;2.13;;;13.40;99.90;;;;;;5112210;27;20216;-75
2021/03/28 13:34:30;;;;;;;5.97;1.80;;;13.40;99.90;;;;;;5046270;28;20215;-76
2021/03/28 13:37:11;;;;;;;5.37;1.93;;;13.50;99.90;;;;;;5058078;28;20259;-76
2021/03/28 13:39:41;;;;;;;6.97;2.70;;;13.50;99.90;;;;;;5098391;28;20216;-76
2021/03/28 13:42:20;;;;;;;6.00;2.07;;;13.50;99.90;;;;;;5126421;28;20216;-76
2021/03/28 13:44:53;;;;;;;7.37;2.63;;;13.40;99.90;;;;;;5119146;28;20260;-76
2021/03/28 13:47:50;;;;;;;4.17;2.17;;;13.40;99.90;;;;;;5112026;28;20231;-69
2021/03/28 13:50:33;;;;;;;5.07;2.50;;;13.30;99.90;;;;;;5118688;28;20562;-67
2021/03/28 13:53:03;;;;;;;6.50;2.43;;;13.20;99.90;;;;;;5094692;28;20204;-67
2021/03/28 13:55:35;;;;;;;8.53;2.30;;;13.10;99.90;;;;;;5113019;28;20201;-68
2021/03/28 13:58:20;;;;;;;8.93;2.53;;;13.00;99.90;;;;;;5110632;28;20204;-67
2021/03/28 14:00:51;;;;;;;6.70;2.30;;;12.90;99.90;;;;;;5112573;28;20212;-68
2021/03/28 14:03:28;;;;;;;5.27;2.00;;;12.90;99.90;;;;;;5117260;28;21500;-67
2021/03/28 14:05:54;;;;;;;6.37;2.33;;;12.80;99.90;;;;;;5114742;28;20211;-68
2021/03/28 14:08:26;;;;;;;5.97;2.40;;;12.70;99.90;;;;;;5113471;28;20506;-68
2021/03/28 14:10:57;;;;;;;10.70;2.67;;;12.80;99.90;;;;;;5119528;28;20208;-67
2021/03/28 14:13:27;;;;;;;4.97;2.10;;;12.70;99.90;;;;;;5111854;28;20246;-68
2021/03/28 14:16:08;;;;;;;3.70;2.17;;;12.70;99.90;;;;;;5118631;27;20668;-68
2021/03/28 14:18:38;;;;;;;9.97;2.57;;;12.80;99.90;;;;;;5123209;27;20209;-67
2021/03/28 14:21:25;;;;;;;8.87;2.20;;;12.90;99.90;;;;;;5120492;27;20196;-68
2021/03/28 14:23:56;;;;;;;4.97;2.17;;;12.90;99.90;;;;;;5122609;27;20295;-68
2021/03/28 14:26:30;;;;;;;6.77;2.40;;;12.80;99.90;;;;;;5117912;27;20232;-67
2021/03/28 14:28:57;;;;;;;5.20;2.13;;;12.80;99.90;;;;;;5114362;27;20208;-68
2021/03/28 14:31:33;;;;;;;4.70;2.00;;;12.80;99.90;;;;;;5114268;27;20221;-68
2021/03/28 14:34:30;;;;;;;6.10;3.03;;;12.80;99.90;;;;;;5113197;27;20236;-67